Time;durP1;ratioP1;P1;durP2;ratioP2;P2;SDS_P1;SDS_P2;PMS_P1;PMS_P2;Temp;Humidity;BMP_temperature;BMP_pressure;BME280_temperature;BME280_humidity;BME280_pressure;Samples;Min_cycle;Max_cycle;Signal;HPM_P1;HPM_P2
2022/11/06 00:00:21;;;;;;;11.77;6.07;;;9.40;99.90;;;;;;5090100;28;20081;-59
2022/11/06 00:02:48;;;;;;;11.30;6.32;;;9.40;99.90;;;;;;5093656;28;20461;-55
2022/11/06 00:07:58;;;;;;;13.10;5.95;;;9.30;99.90;;;;;;5094040;28;20093;-56
2022/11/06 00:10:24;;;;;;;14.48;6.00;;;9.30;99.90;;;;;;5094515;28;20384;-56
2022/11/06 00:12:50;;;;;;;13.07;6.53;;;9.20;99.90;;;;;;5094791;28;20027;-58
2022/11/06 00:15:16;;;;;;;12.13;5.78;;;9.20;99.90;;;;;;5093602;28;20063;-55
2022/11/06 00:17:41;;;;;;;14.00;6.22;;;9.20;99.90;;;;;;5094565;28;20047;-55
2022/11/06 00:20:08;;;;;;;9.40;5.85;;;9.10;99.90;;;;;;5094054;28;20020;-57
2022/11/06 00:22:35;;;;;;;9.75;6.13;;;9.10;99.90;;;;;;5092491;28;20043;-52
2022/11/06 00:25:02;;;;;;;11.65;6.72;;;9.10;99.90;;;;;;5094740;28;20067;-54
2022/11/06 00:27:28;;;;;;;11.55;5.90;;;9.00;99.90;;;;;;5093433;28;20035;-57
2022/11/06 00:29:54;;;;;;;11.88;7.03;;;9.00;99.90;;;;;;5092404;28;20024;-55
2022/11/06 00:32:20;;;;;;;9.93;5.43;;;9.00;99.90;;;;;;5092071;28;20155;-52
2022/11/06 00:34:46;;;;;;;13.02;5.57;;;8.90;99.90;;;;;;5094757;28;20479;-62
2022/11/06 00:37:12;;;;;;;13.88;6.65;;;8.90;99.90;;;;;;5092428;28;20468;-55
2022/11/06 00:39:38;;;;;;;11.77;5.57;;;8.90;99.90;;;;;;5094363;28;20024;-57
2022/11/06 00:42:04;;;;;;;14.77;6.47;;;8.90;99.90;;;;;;5094841;28;20028;-54
2022/11/06 00:44:29;;;;;;;12.90;5.35;;;9.00;99.90;;;;;;5103725;28;20126;-55
2022/11/06 00:46:55;;;;;;;10.73;5.78;;;9.00;99.90;;;;;;5110706;28;20052;-65
2022/11/06 00:49:21;;;;;;;11.23;4.85;;;9.00;99.90;;;;;;5093744;28;20099;-58
2022/11/06 00:51:46;;;;;;;11.65;6.13;;;9.00;99.90;;;;;;5093638;28;20145;-57
2022/11/06 00:54:12;;;;;;;10.05;5.63;;;9.00;99.90;;;;;;5091543;28;20077;-59
2022/11/06 00:56:39;;;;;;;10.80;5.25;;;9.10;99.90;;;;;;5093798;28;20035;-57
2022/11/06 00:59:09;;;;;;;12.70;5.40;;;9.10;99.90;;;;;;5093498;28;20376;-56
2022/11/06 01:01:37;;;;;;;8.20;4.93;;;9.20;99.90;;;;;;5094320;28;20048;-57
2022/11/06 01:04:06;;;;;;;10.60;4.95;;;9.10;99.90;;;;;;5093351;28;20294;-56
2022/11/06 01:06:35;;;;;;;10.05;4.57;;;9.10;99.90;;;;;;5093438;28;20472;-56
2022/11/06 01:09:02;;;;;;;11.25;5.75;;;9.20;99.90;;;;;;5092244;28;20024;-58
2022/11/06 01:11:34;;;;;;;13.77;5.07;;;9.10;99.90;;;;;;5092420;28;20150;-55
2022/11/06 01:14:01;;;;;;;10.45;5.10;;;9.10;99.90;;;;;;5093587;28;20024;-59
2022/11/06 01:16:27;;;;;;;9.50;4.47;;;9.10;99.90;;;;;;5093893;28;20111;-54
2022/11/06 01:18:54;;;;;;;11.10;4.70;;;9.00;99.90;;;;;;5093349;28;20102;-56
2022/11/06 01:21:31;;;;;;;12.82;4.75;;;9.00;99.90;;;;;;5092540;28;20020;-55
2022/11/06 01:24:01;;;;;;;11.45;5.50;;;9.00;99.90;;;;;;5093148;28;20496;-56
2022/11/06 01:26:27;;;;;;;11.25;4.85;;;8.90;99.90;;;;;;5093101;28;20020;-55
2022/11/06 01:28:54;;;;;;;11.48;5.20;;;9.00;99.90;;;;;;5091959;28;20016;-55
2022/11/06 01:31:23;;;;;;;10.30;4.63;;;9.00;99.90;;;;;;5087186;28;20027;-56
2022/11/06 01:33:49;;;;;;;8.63;4.95;;;9.10;99.90;;;;;;5072634;28;20043;-56
2022/11/06 01:36:19;;;;;;;7.45;5.20;;;9.10;99.90;;;;;;5072820;28;20021;-54
2022/11/06 01:38:50;;;;;;;7.82;4.97;;;9.00;99.90;;;;;;5073099;28;20064;-58
2022/11/06 01:41:24;;;;;;;11.25;5.30;;;9.00;99.90;;;;;;5072104;28;20016;-57
2022/11/06 01:43:59;;;;;;;8.75;5.30;;;9.00;99.90;;;;;;5073090;28;20327;-54
2022/11/06 01:46:30;;;;;;;14.20;4.75;;;8.90;99.90;;;;;;5072321;28;20071;-56
2022/11/06 01:49:03;;;;;;;7.38;4.07;;;9.00;99.90;;;;;;5072975;28;20029;-56
2022/11/06 01:51:31;;;;;;;10.77;4.38;;;9.00;99.90;;;;;;5072875;28;20358;-58
2022/11/06 01:53:57;;;;;;;8.98;4.00;;;9.10;99.90;;;;;;5071896;28;20021;-59
2022/11/06 01:56:23;;;;;;;8.48;4.22;;;9.20;99.90;;;;;;5072594;28;20059;-58
2022/11/06 01:58:52;;;;;;;11.95;5.22;;;9.30;99.90;;;;;;5072708;28;20060;-55
2022/11/06 02:01:18;;;;;;;8.20;3.97;;;9.30;99.90;;;;;;5071552;28;20025;-57
2022/11/06 02:03:50;;;;;;;8.50;4.28;;;9.30;99.90;;;;;;5072476;28;20032;-56
2022/11/06 02:06:16;;;;;;;8.77;4.40;;;9.30;99.90;;;;;;5104200;28;20031;-58
2022/11/06 02:08:42;;;;;;;8.02;4.65;;;9.30;99.90;;;;;;5072048;28;20028;-58
2022/11/06 02:11:07;;;;;;;6.38;4.10;;;9.20;99.90;;;;;;5072046;28;20353;-55
2022/11/06 02:13:56;;;;;;;10.73;4.35;;;9.10;99.90;;;;;;5072647;28;20380;-58
2022/11/06 02:16:39;;;;;;;8.70;4.10;;;9.00;99.90;;;;;;5071391;28;20021;-58
2022/11/06 02:19:40;;;;;;;11.35;4.40;;;8.90;99.90;;;;;;5072130;28;20024;-57
2022/11/06 02:22:27;;;;;;;9.07;4.00;;;8.90;99.90;;;;;;5071359;28;20037;-54
2022/11/06 02:25:23;;;;;;;13.52;4.75;;;8.80;99.90;;;;;;5071318;28;20116;-56
2022/11/06 02:28:07;;;;;;;8.00;3.88;;;8.80;99.90;;;;;;5072423;28;20036;-54
2022/11/06 02:30:39;;;;;;;11.45;4.18;;;8.80;99.90;;;;;;5071607;28;20027;-55
2022/11/06 02:33:11;;;;;;;10.95;3.72;;;8.80;99.90;;;;;;5071944;28;20044;-57
2022/11/06 02:35:54;;;;;;;10.27;4.13;;;8.80;99.90;;;;;;5071112;28;20108;-58
2022/11/06 02:38:24;;;;;;;8.23;3.58;;;8.80;99.90;;;;;;5071484;28;20032;-54
2022/11/06 02:40:57;;;;;;;7.25;3.42;;;8.90;99.90;;;;;;5072046;28;20028;-58
2022/11/06 02:43:30;;;;;;;11.98;4.30;;;8.90;99.90;;;;;;5071224;28;20033;-58
2022/11/06 02:46:02;;;;;;;9.80;3.67;;;9.00;99.90;;;;;;5071958;28;20032;-58
2022/11/06 02:48:40;;;;;;;6.80;3.70;;;9.00;99.90;;;;;;5072084;28;20101;-57
2022/11/06 02:51:09;;;;;;;6.95;3.95;;;8.90;99.90;;;;;;5071022;28;20094;-58
2022/11/06 02:53:37;;;;;;;7.63;3.97;;;8.90;99.90;;;;;;5070457;28;20029;-54
2022/11/06 02:56:11;;;;;;;7.03;3.53;;;8.90;99.90;;;;;;5071332;28;20020;-56
2022/11/06 02:59:10;;;;;;;6.45;3.22;;;9.00;99.90;;;;;;5070987;28;20035;-58
2022/11/06 03:01:41;;;;;;;9.10;3.30;;;9.10;99.90;;;;;;5071298;28;20549;-52
2022/11/06 03:04:17;;;;;;;8.13;4.20;;;9.20;99.90;;;;;;5070390;28;20108;-57
2022/11/06 03:06:50;;;;;;;8.60;3.42;;;9.20;99.90;;;;;;5071658;28;20099;-58
2022/11/06 03:09:24;;;;;;;7.43;3.58;;;9.30;99.90;;;;;;5070927;28;20032;-58
2022/11/06 03:12:13;;;;;;;6.80;3.22;;;9.30;99.90;;;;;;5070950;28;20008;-58
2022/11/06 03:14:53;;;;;;;8.40;3.30;;;9.40;99.90;;;;;;5071361;28;20025;-59
2022/11/06 03:17:43;;;;;;;7.05;3.10;;;9.40;99.90;;;;;;5069736;28;20039;-56
2022/11/06 03:20:17;;;;;;;10.32;3.33;;;9.40;99.90;;;;;;5070581;28;20021;-55
2022/11/06 03:22:56;;;;;;;5.70;2.78;;;9.40;99.90;;;;;;5071061;28;20128;-57
2022/11/06 03:25:34;;;;;;;6.70;3.22;;;9.40;99.90;;;;;;5070242;28;20032;-59
2022/11/06 03:28:10;;;;;;;5.55;3.13;;;9.40;99.90;;;;;;5069487;28;20029;-55
2022/11/06 03:30:47;;;;;;;4.13;2.60;;;9.50;99.90;;;;;;5070096;28;20020;-55
2022/11/06 03:33:20;;;;;;;8.95;2.88;;;9.40;99.90;;;;;;5070092;28;20482;-60
2022/11/06 03:36:07;;;;;;;6.15;2.83;;;9.50;99.90;;;;;;5071230;28;20016;-58
2022/11/06 03:38:43;;;;;;;5.95;2.60;;;9.50;99.90;;;;;;5071028;28;20032;-58
2022/11/06 03:41:21;;;;;;;6.25;2.58;;;9.50;99.90;;;;;;5069191;28;20025;-57
2022/11/06 03:43:50;;;;;;;8.95;3.13;;;9.50;99.90;;;;;;5070971;28;20035;-59
2022/11/06 03:46:20;;;;;;;6.90;2.90;;;9.50;99.90;;;;;;5069102;28;20036;-58
2022/11/06 03:48:53;;;;;;;8.40;3.73;;;9.60;99.90;;;;;;5071075;28;20024;-57
2022/11/06 03:51:24;;;;;;;7.78;2.90;;;9.60;99.90;;;;;;5069610;28;20852;-55
2022/11/06 03:53:57;;;;;;;5.72;2.45;;;9.60;99.90;;;;;;5070976;28;20033;-56
2022/11/06 03:56:37;;;;;;;6.30;2.70;;;9.60;99.90;;;;;;5103329;28;20025;-61
2022/11/06 03:59:05;;;;;;;4.38;2.00;;;9.70;99.90;;;;;;5070614;28;20078;-58
2022/11/06 04:01:34;;;;;;;7.75;2.60;;;9.70;99.90;;;;;;5070413;28;20048;-60
2022/11/06 04:04:19;;;;;;;5.85;2.38;;;9.70;99.90;;;;;;5070647;28;20068;-57
2022/11/06 04:06:55;;;;;;;5.32;2.50;;;9.70;99.90;;;;;;5071088;28;20055;-58
2022/11/06 04:14:57;;;;;;;7.10;2.35;;;9.70;99.90;;;;;;5070658;28;20032;-57
2022/11/06 04:17:25;;;;;;;9.32;3.03;;;9.70;99.90;;;;;;5069344;28;20023;-56
2022/11/06 04:19:56;;;;;;;6.93;2.00;;;9.70;99.90;;;;;;5070749;28;20066;-56
2022/11/06 04:22:24;;;;;;;8.77;3.00;;;9.80;99.90;;;;;;5069513;28;20063;-55
2022/11/06 04:28:29;;;;;;;5.57;2.42;;;9.80;99.90;;;;;;5070552;28;20124;-56
2022/11/06 04:31:15;;;;;;;4.68;2.58;;;9.80;99.90;;;;;;5069731;28;20042;-55
2022/11/06 04:33:52;;;;;;;10.88;2.70;;;9.80;99.90;;;;;;5070334;28;20043;-56
2022/11/06 04:36:28;;;;;;;3.95;2.22;;;9.80;99.90;;;;;;5069292;28;20024;-55
2022/11/06 04:39:05;;;;;;;7.10;2.70;;;9.80;99.90;;;;;;5068979;28;20334;-53
2022/11/06 04:41:45;;;;;;;6.93;2.33;;;9.80;99.90;;;;;;5068950;28;20043;-56
2022/11/06 04:44:14;;;;;;;7.15;2.85;;;9.80;99.90;;;;;;5069309;28;20035;-55
2022/11/06 04:46:54;;;;;;;9.95;2.65;;;9.80;99.90;;;;;;5070937;28;20074;-54
2022/11/06 04:49:22;;;;;;;5.07;2.80;;;9.80;99.90;;;;;;5073482;28;20016;-55
2022/11/06 04:51:48;;;;;;;7.75;2.90;;;9.80;99.90;;;;;;5073870;28;20039;-57
2022/11/06 04:54:14;;;;;;;5.18;2.15;;;9.80;99.90;;;;;;5073919;28;20087;-56
2022/11/06 04:56:40;;;;;;;8.32;2.83;;;9.80;99.90;;;;;;5073329;28;20032;-53
2022/11/06 04:59:08;;;;;;;4.40;2.55;;;9.90;99.90;;;;;;5073243;28;20062;-59
2022/11/06 05:01:34;;;;;;;8.20;3.03;;;9.90;99.90;;;;;;5073851;28;20145;-58
2022/11/06 05:03:59;;;;;;;5.30;2.78;;;9.90;99.90;;;;;;5072632;28;20447;-57
2022/11/06 05:06:25;;;;;;;5.15;2.20;;;9.80;99.90;;;;;;5073908;28;20024;-57
2022/11/06 05:08:50;;;;;;;7.25;2.45;;;9.90;99.90;;;;;;5073494;28;20031;-57
2022/11/06 05:11:16;;;;;;;8.07;2.67;;;9.90;99.90;;;;;;5072875;28;20028;-55
2022/11/06 05:13:42;;;;;;;4.53;2.17;;;9.90;99.90;;;;;;5087986;28;20036;-52
2022/11/06 05:16:07;;;;;;;4.70;2.20;;;9.80;99.90;;;;;;5093194;28;20034;-55
2022/11/06 05:18:33;;;;;;;12.38;3.08;;;9.70;99.90;;;;;;5092754;28;20056;-53
2022/11/06 05:23:44;;;;;;;5.80;2.40;;;9.60;99.90;;;;;;5093242;28;20091;-54
2022/11/06 05:26:09;;;;;;;5.32;2.75;;;9.50;99.90;;;;;;5092561;28;20047;-56
2022/11/06 05:28:35;;;;;;;6.45;3.00;;;9.50;99.90;;;;;;5093439;28;20020;-54
2022/11/06 05:31:00;;;;;;;7.25;2.75;;;9.40;99.90;;;;;;5092963;28;20032;-56
2022/11/06 05:33:26;;;;;;;5.47;2.60;;;9.40;99.90;;;;;;5091409;28;20027;-57
2022/11/06 05:35:52;;;;;;;6.85;2.80;;;9.40;99.90;;;;;;5092959;28;20071;-55
2022/11/06 05:38:17;;;;;;;5.43;2.47;;;9.40;99.90;;;;;;5091649;28;20028;-57
2022/11/06 05:40:43;;;;;;;5.03;2.25;;;9.40;99.90;;;;;;5092393;28;20069;-55
2022/11/06 05:43:09;;;;;;;10.95;3.10;;;9.50;99.90;;;;;;5076380;28;20028;-54
2022/11/06 05:45:34;;;;;;;6.93;2.45;;;9.50;99.90;;;;;;5072313;28;20056;-57
2022/11/06 05:48:00;;;;;;;8.32;2.58;;;9.60;99.90;;;;;;5072646;28;20380;-54
2022/11/06 05:50:25;;;;;;;7.00;2.65;;;9.70;99.90;;;;;;5080736;28;20077;-56
2022/11/06 05:52:51;;;;;;;7.38;2.67;;;9.70;99.90;;;;;;5074715;28;20098;-57
2022/11/06 05:55:17;;;;;;;9.00;2.95;;;9.70;99.90;;;;;;5103876;28;20028;-60
2022/11/06 05:57:42;;;;;;;7.85;3.00;;;9.70;99.90;;;;;;5071575;28;20028;-57
2022/11/06 06:00:09;;;;;;;6.97;2.78;;;9.80;99.90;;;;;;5086198;28;20605;-57
2022/11/06 06:02:36;;;;;;;5.30;2.75;;;9.80;99.90;;;;;;5090834;28;20027;-54
2022/11/06 06:05:02;;;;;;;9.63;2.83;;;9.80;99.90;;;;;;5092196;28;20036;-56
2022/11/06 06:07:28;;;;;;;5.45;2.67;;;9.80;99.90;;;;;;5091840;28;20022;-56
2022/11/06 06:09:53;;;;;;;6.55;2.97;;;9.80;99.90;;;;;;5092490;28;20032;-56
2022/11/06 06:12:19;;;;;;;5.13;2.55;;;9.80;99.90;;;;;;5091981;28;20380;-55
2022/11/06 06:14:45;;;;;;;7.40;2.35;;;9.80;99.90;;;;;;5089958;28;20483;-57
2022/11/06 06:17:10;;;;;;;5.43;2.15;;;9.90;99.90;;;;;;5091067;28;20145;-54
2022/11/06 06:19:36;;;;;;;11.82;2.85;;;9.90;99.90;;;;;;5091758;28;20376;-58
2022/11/06 06:22:01;;;;;;;3.83;2.00;;;10.00;99.90;;;;;;5091162;28;20476;-56
2022/11/06 06:24:27;;;;;;;4.20;2.30;;;10.00;99.90;;;;;;5091984;28;20032;-58
2022/11/06 06:26:53;;;;;;;4.82;2.33;;;10.00;99.90;;;;;;5092357;28;20030;-57
2022/11/06 06:29:19;;;;;;;6.10;2.35;;;10.00;99.90;;;;;;5091160;28;20476;-56
2022/11/06 06:31:44;;;;;;;7.07;2.67;;;10.00;99.90;;;;;;5089969;28;20023;-56
2022/11/06 06:34:10;;;;;;;8.43;2.85;;;10.00;99.90;;;;;;5090278;28;20016;-54
2022/11/06 06:36:35;;;;;;;5.72;2.58;;;10.00;99.90;;;;;;5090444;28;20027;-57
2022/11/06 06:39:01;;;;;;;7.25;2.03;;;10.10;99.90;;;;;;5091685;28;20567;-55
2022/11/06 06:41:26;;;;;;;4.75;2.25;;;10.10;99.90;;;;;;5091867;28;20032;-56
2022/11/06 06:43:52;;;;;;;8.25;2.45;;;10.00;99.90;;;;;;5090809;28;20032;-57
2022/11/06 06:46:18;;;;;;;6.28;2.60;;;10.10;99.90;;;;;;5091411;28;20063;-54
2022/11/06 06:48:43;;;;;;;4.43;2.50;;;10.10;99.90;;;;;;5091862;28;20034;-56
2022/11/06 06:51:09;;;;;;;5.20;2.08;;;10.10;99.90;;;;;;5089986;28;20017;-56
2022/11/06 06:53:35;;;;;;;5.63;2.50;;;10.20;99.90;;;;;;5090545;28;20028;-53
2022/11/06 06:56:01;;;;;;;4.78;2.53;;;10.20;99.90;;;;;;5091002;28;20024;-56
2022/11/06 06:58:28;;;;;;;7.00;2.50;;;10.20;99.90;;;;;;5091784;28;20032;-57
2022/11/06 07:00:54;;;;;;;3.70;2.15;;;10.20;99.90;;;;;;5091949;28;20472;-55
2022/11/06 07:03:20;;;;;;;8.40;2.30;;;10.20;99.90;;;;;;5090774;28;20166;-56
2022/11/06 07:05:46;;;;;;;6.13;2.15;;;10.20;99.90;;;;;;5091491;28;20509;-57
2022/11/06 07:08:11;;;;;;;6.05;2.65;;;10.20;99.90;;;;;;5090949;28;20039;-54
2022/11/06 07:10:37;;;;;;;5.85;2.45;;;10.20;99.90;;;;;;5090334;28;20028;-58
2022/11/06 07:13:03;;;;;;;10.63;2.63;;;10.10;99.90;;;;;;5091184;28;20487;-52
2022/11/06 07:15:30;;;;;;;6.78;2.53;;;10.10;99.90;;;;;;5091300;28;20486;-56
2022/11/06 07:18:04;;;;;;;9.52;2.63;;;10.10;99.90;;;;;;5090727;28;20561;-55
2022/11/06 07:20:31;;;;;;;7.70;2.55;;;10.10;99.90;;;;;;5091063;28;20020;-54
2022/11/06 07:22:57;;;;;;;5.00;2.25;;;10.10;99.90;;;;;;5090909;28;20048;-55
2022/11/06 07:25:23;;;;;;;3.78;2.13;;;10.10;99.90;;;;;;5088881;28;20077;-57
2022/11/06 07:27:49;;;;;;;4.05;1.98;;;10.10;99.90;;;;;;5091308;28;20099;-55
2022/11/06 07:30:15;;;;;;;4.93;2.17;;;10.20;99.90;;;;;;5089463;28;20112;-57
2022/11/06 07:32:41;;;;;;;7.97;2.35;;;10.20;99.90;;;;;;5090441;28;20032;-54
2022/11/06 07:35:07;;;;;;;7.32;2.38;;;10.30;99.90;;;;;;5090945;28;20028;-53
2022/11/06 07:37:32;;;;;;;8.52;2.15;;;10.40;99.90;;;;;;5089764;28;20024;-56
2022/11/06 07:39:58;;;;;;;5.85;2.65;;;10.50;99.90;;;;;;5090295;28;20020;-59
2022/11/06 07:42:23;;;;;;;5.70;2.35;;;10.50;99.90;;;;;;5091082;28;20038;-56
2022/11/06 07:44:53;;;;;;;5.43;2.10;;;10.50;99.90;;;;;;5091281;28;20031;-56
2022/11/06 07:47:18;;;;;;;7.95;2.30;;;10.60;99.90;;;;;;5090251;28;20794;-56
2022/11/06 07:49:44;;;;;;;3.85;2.13;;;10.60;99.90;;;;;;5091045;28;20031;-54
2022/11/06 07:52:09;;;;;;;5.15;2.00;;;10.70;99.90;;;;;;5089934;28;20070;-56
2022/11/06 07:54:35;;;;;;;5.13;2.13;;;10.80;99.90;;;;;;5090963;28;20032;-56
2022/11/06 07:57:00;;;;;;;4.75;1.92;;;10.80;99.90;;;;;;5089302;28;20024;-58
2022/11/06 07:59:26;;;;;;;6.00;2.15;;;10.90;99.90;;;;;;5090299;28;20580;-55
2022/11/06 08:01:51;;;;;;;7.05;2.20;;;10.90;99.90;;;;;;5090626;28;20037;-55
2022/11/06 08:04:17;;;;;;;3.63;2.28;;;10.90;99.90;;;;;;5090165;28;20089;-58
2022/11/06 08:06:43;;;;;;;7.55;2.20;;;10.90;99.90;;;;;;5089407;28;20028;-58
2022/11/06 08:09:08;;;;;;;6.97;2.17;;;11.00;99.90;;;;;;5105723;28;20055;-56
2022/11/06 08:11:34;;;;;;;4.15;1.92;;;11.00;99.90;;;;;;5070498;28;20028;-56
2022/11/06 08:14:00;;;;;;;5.68;2.25;;;11.00;99.90;;;;;;5069241;28;20025;-58
2022/11/06 08:16:26;;;;;;;5.60;2.05;;;11.00;99.90;;;;;;5070491;28;20024;-57
2022/11/06 08:18:51;;;;;;;6.75;2.28;;;11.10;99.90;;;;;;5070308;28;20033;-57
2022/11/06 08:21:17;;;;;;;3.00;1.63;;;11.20;99.90;;;;;;5078088;28;20469;-58
2022/11/06 08:23:42;;;;;;;6.75;2.10;;;11.20;99.90;;;;;;5073251;28;20052;-58
2022/11/06 08:26:10;;;;;;;4.95;1.95;;;11.30;99.90;;;;;;5073503;28;20043;-57
2022/11/06 08:28:35;;;;;;;7.35;2.13;;;11.40;99.90;;;;;;5073427;28;20029;-55
2022/11/06 08:31:05;;;;;;;5.65;1.90;;;11.50;99.90;;;;;;5089253;28;20043;-59
2022/11/06 08:33:31;;;;;;;6.03;1.67;;;11.50;99.90;;;;;;5093948;28;20438;-56
2022/11/06 08:36:04;;;;;;;5.95;1.95;;;11.60;99.90;;;;;;5093382;28;20020;-56
2022/11/06 08:38:29;;;;;;;4.60;1.75;;;11.70;99.90;;;;;;5093024;28;20027;-56
2022/11/06 08:40:55;;;;;;;6.82;2.22;;;11.80;99.90;;;;;;5084169;28;20426;-61
2022/11/06 08:43:25;;;;;;;5.57;2.10;;;11.80;99.90;;;;;;5102733;28;20078;-58
2022/11/06 08:45:51;;;;;;;3.63;1.80;;;11.90;99.90;;;;;;5093896;28;20358;-58
2022/11/06 08:48:16;;;;;;;3.38;1.63;;;11.90;99.90;;;;;;5093378;28;20460;-58
2022/11/06 08:50:42;;;;;;;4.70;1.88;;;11.90;99.90;;;;;;5092885;28;20032;-57
2022/11/06 08:53:08;;;;;;;6.47;2.05;;;11.80;99.90;;;;;;5093301;28;20028;-57
2022/11/06 08:55:36;;;;;;;9.38;1.83;;;11.80;99.90;;;;;;5092614;28;20038;-57
2022/11/06 08:58:02;;;;;;;6.80;2.13;;;11.80;99.90;;;;;;5093409;28;20020;-56
2022/11/06 09:00:28;;;;;;;7.45;2.00;;;11.90;99.90;;;;;;5093116;28;20491;-57
2022/11/06 09:03:02;;;;;;;4.30;1.65;;;11.90;99.90;;;;;;5072479;28;20461;-57
2022/11/06 09:05:29;;;;;;;7.47;1.70;;;11.90;99.90;;;;;;5073971;28;20044;-57
2022/11/06 09:07:56;;;;;;;7.45;2.22;;;11.90;99.90;;;;;;5107762;28;20020;-56
2022/11/06 09:10:21;;;;;;;3.42;1.73;;;11.80;99.90;;;;;;5112837;28;20084;-59
2022/11/06 09:12:47;;;;;;;3.72;1.88;;;11.80;99.90;;;;;;5113839;28;20492;-57
2022/11/06 09:15:13;;;;;;;6.90;2.40;;;11.80;99.90;;;;;;5111802;28;20028;-56
2022/11/06 09:17:46;;;;;;;5.82;2.08;;;11.80;99.90;;;;;;5095821;28;20201;-56
2022/11/06 09:20:13;;;;;;;5.07;1.70;;;11.80;99.90;;;;;;5089402;28;20731;-55
2022/11/06 09:22:38;;;;;;;5.32;2.10;;;11.90;99.80;;;;;;5071468;28;20123;-56
2022/11/06 09:25:05;;;;;;;6.90;2.00;;;12.00;99.80;;;;;;5071022;28;20101;-57
2022/11/06 09:27:31;;;;;;;7.40;1.80;;;12.00;99.70;;;;;;5083481;28;20028;-56
2022/11/06 09:29:57;;;;;;;3.97;1.48;;;12.00;99.70;;;;;;5091876;28;20035;-56
2022/11/06 09:32:23;;;;;;;3.70;1.65;;;12.10;99.60;;;;;;5090414;28;20016;-55
2022/11/06 09:34:49;;;;;;;7.55;1.90;;;12.10;99.50;;;;;;5092780;28;20495;-56
2022/11/06 09:37:15;;;;;;;6.68;2.03;;;12.20;99.50;;;;;;5091277;28;20027;-56
2022/11/06 09:39:40;;;;;;;5.30;2.00;;;12.20;99.40;;;;;;5091855;28;20078;-53
2022/11/06 09:42:47;;;;;;;5.75;1.90;;;12.10;99.50;;;;;;5090916;28;20039;-56
2022/11/06 09:45:21;;;;;;;4.75;1.50;;;12.10;99.60;;;;;;5071000;28;20087;-58
2022/11/06 09:48:10;;;;;;;6.63;1.90;;;12.10;99.50;;;;;;5080447;28;20016;-52
2022/11/06 09:50:58;;;;;;;6.40;2.25;;;12.20;99.50;;;;;;5070404;28;20452;-55
2022/11/06 09:53:35;;;;;;;5.53;1.83;;;12.30;99.40;;;;;;5091816;28;20043;-59
2022/11/06 09:56:02;;;;;;;3.75;1.85;;;12.40;99.10;;;;;;5071801;28;20027;-57
2022/11/06 09:58:36;;;;;;;6.90;2.28;;;12.60;99.00;;;;;;5088240;28;20420;-57
2022/11/06 10:01:28;;;;;;;6.18;2.00;;;12.70;98.60;;;;;;5098940;28;20036;-58
2022/11/06 10:03:57;;;;;;;4.78;1.92;;;12.70;98.40;;;;;;5088947;28;20055;-56
2022/11/06 10:06:23;;;;;;;6.15;2.05;;;12.80;98.10;;;;;;5092487;28;20020;-55
2022/11/06 10:08:53;;;;;;;2.47;1.73;;;12.80;98.00;;;;;;5088692;28;20056;-56
2022/11/06 10:11:19;;;;;;;3.42;1.67;;;12.90;97.90;;;;;;5071088;28;20638;-59
2022/11/06 10:14:42;;;;;;;3.63;1.98;;;12.90;97.80;;;;;;5070446;28;20033;-55
2022/11/06 10:17:41;;;;;;;3.72;1.83;;;12.90;97.70;;;;;;5028731;28;20037;-56
2022/11/06 10:20:17;;;;;;;6.38;1.85;;;13.00;97.60;;;;;;5046463;28;20144;-57
2022/11/06 10:22:52;;;;;;;5.55;1.77;;;13.10;97.50;;;;;;5068542;28;20067;-55
2022/11/06 10:25:28;;;;;;;5.82;1.60;;;13.10;97.30;;;;;;5074947;28;20568;-58
2022/11/06 10:28:19;;;;;;;4.88;1.60;;;13.20;97.20;;;;;;5069681;28;20020;-57
2022/11/06 10:31:01;;;;;;;4.05;1.70;;;13.40;97.20;;;;;;5069465;28;20411;-58
2022/11/06 10:33:48;;;;;;;5.68;1.88;;;13.50;96.90;;;;;;5070163;28;20035;-58
2022/11/06 10:36:20;;;;;;;4.15;1.52;;;13.50;96.20;;;;;;5068813;28;20024;-57
2022/11/06 10:38:47;;;;;;;4.38;2.42;;;13.50;96.10;;;;;;5076949;28;20024;-57
2022/11/06 10:41:23;;;;;;;2.92;1.38;;;13.50;96.20;;;;;;5088061;28;20031;-57
2022/11/06 10:44:05;;;;;;;3.30;1.60;;;13.50;96.00;;;;;;5089500;28;20047;-56
2022/11/06 10:46:38;;;;;;;3.10;1.52;;;13.60;95.80;;;;;;5088677;28;20103;-58
2022/11/06 10:49:45;;;;;;;5.80;1.90;;;13.60;95.70;;;;;;5079201;28;20102;-58
2022/11/06 10:52:38;;;;;;;4.25;1.55;;;13.70;95.60;;;;;;5068203;28;20106;-58
2022/11/06 10:55:32;;;;;;;2.78;1.38;;;13.80;95.30;;;;;;5068593;28;20059;-58
2022/11/06 10:58:01;;;;;;;3.90;1.58;;;13.80;94.90;;;;;;5087277;28;20090;-58
2022/11/06 11:00:26;;;;;;;7.50;1.52;;;13.80;94.60;;;;;;5078392;28;20039;-57
2022/11/06 11:02:55;;;;;;;3.75;1.65;;;13.90;94.50;;;;;;5075141;28;20040;-58
2022/11/06 11:05:23;;;;;;;4.32;1.40;;;13.90;94.80;;;;;;5072334;28;20095;-57
2022/11/06 11:07:49;;;;;;;4.13;1.60;;;13.90;94.50;;;;;;5085289;28;20021;-58
2022/11/06 11:10:35;;;;;;;4.90;1.48;;;13.90;94.10;;;;;;5071215;28;20028;-58
2022/11/06 11:13:03;;;;;;;7.25;1.60;;;13.80;93.90;;;;;;5085615;28;20027;-59
2022/11/06 11:15:39;;;;;;;2.67;1.08;;;13.80;93.90;;;;;;5084606;28;20111;-60
2022/11/06 11:18:12;;;;;;;6.88;1.50;;;13.80;94.00;;;;;;5088823;28;20016;-58
2022/11/06 11:20:44;;;;;;;4.55;1.70;;;13.90;94.00;;;;;;5090861;28;20028;-56
2022/11/06 11:23:22;;;;;;;3.28;1.35;;;14.00;93.90;;;;;;5089620;28;20395;-61
2022/11/06 11:25:53;;;;;;;3.97;1.52;;;14.00;93.60;;;;;;5091133;28;20024;-59
2022/11/06 11:28:30;;;;;;;6.13;1.73;;;14.10;93.30;;;;;;5090695;28;20031;-58
2022/11/06 11:31:16;;;;;;;4.75;1.40;;;14.10;93.30;;;;;;5090532;28;20028;-59
2022/11/06 11:33:53;;;;;;;5.63;2.00;;;14.00;93.20;;;;;;5074457;28;20033;-58
2022/11/06 11:36:19;;;;;;;3.85;1.60;;;14.00;93.30;;;;;;5070673;28;20085;-59
2022/11/06 11:38:45;;;;;;;3.17;1.63;;;13.90;93.20;;;;;;5076393;28;20099;-59
2022/11/06 11:41:12;;;;;;;4.55;1.98;;;13.80;93.10;;;;;;5090639;28;20020;-57
2022/11/06 11:43:39;;;;;;;7.03;1.65;;;13.80;93.20;;;;;;5090394;28;20044;-58
2022/11/06 11:46:08;;;;;;;5.40;1.83;;;13.80;92.90;;;;;;5088646;28;20056;-56
2022/11/06 11:48:51;;;;;;;5.90;1.70;;;13.80;92.90;;;;;;5092517;28;20020;-57
2022/11/06 11:51:37;;;;;;;3.47;1.45;;;13.80;93.00;;;;;;5091343;28;20096;-59
2022/11/06 11:54:11;;;;;;;3.83;1.52;;;13.80;92.60;;;;;;5074827;28;20035;-56
2022/11/06 11:57:07;;;;;;;4.85;2.20;;;13.80;92.60;;;;;;5094066;28;20024;-57
2022/11/06 11:59:56;;;;;;;4.72;1.48;;;13.80;92.30;;;;;;5085165;28;20517;-56
2022/11/06 12:02:29;;;;;;;3.90;1.60;;;13.80;91.80;;;;;;5084348;28;20070;-58
2022/11/06 12:05:27;;;;;;;5.00;1.67;;;13.90;92.00;;;;;;5084913;28;20506;-60
2022/11/06 12:07:55;;;;;;;2.53;1.60;;;14.00;91.50;;;;;;5084774;28;20377;-56
2022/11/06 12:10:39;;;;;;;7.50;2.17;;;14.00;91.20;;;;;;5086403;28;20028;-58
2022/11/06 12:13:22;;;;;;;4.60;1.55;;;14.00;90.80;;;;;;5085594;28;20055;-57
2022/11/06 12:16:01;;;;;;;2.92;1.35;;;14.00;90.80;;;;;;5087101;28;20032;-56
2022/11/06 12:18:32;;;;;;;4.25;1.38;;;13.90;90.90;;;;;;5087427;28;20051;-57
2022/11/06 12:21:10;;;;;;;3.55;1.58;;;13.90;90.90;;;;;;5086389;28;20073;-56
2022/11/06 12:23:42;;;;;;;3.83;1.45;;;13.90;91.10;;;;;;5087733;28;21509;-56
2022/11/06 12:26:28;;;;;;;8.25;2.42;;;13.90;91.00;;;;;;5083731;28;20116;-58
2022/11/06 12:28:59;;;;;;;4.07;1.80;;;14.00;91.20;;;;;;5088470;28;20035;-58
2022/11/06 12:31:49;;;;;;;6.03;1.77;;;14.00;91.40;;;;;;5085822;28;20016;-58
2022/11/06 12:34:51;;;;;;;6.45;2.03;;;14.00;91.50;;;;;;5088039;28;20447;-55
2022/11/06 12:37:20;;;;;;;6.50;2.00;;;14.00;91.40;;;;;;5086752;28;20020;-59
2022/11/06 12:40:15;;;;;;;2.47;1.45;;;14.00;91.50;;;;;;5081186;28;20040;-58
2022/11/06 12:43:04;;;;;;;6.75;1.50;;;14.00;91.60;;;;;;5082863;28;20028;-57
2022/11/06 12:45:44;;;;;;;6.50;1.83;;;13.90;91.80;;;;;;5085185;28;20028;-58
2022/11/06 12:48:37;;;;;;;4.28;1.70;;;13.80;91.80;;;;;;5088221;28;20030;-59
2022/11/06 12:51:29;;;;;;;5.75;1.80;;;13.80;91.90;;;;;;5083282;28;20099;-58
2022/11/06 12:54:14;;;;;;;4.32;1.50;;;13.70;91.90;;;;;;5084043;28;20032;-58
2022/11/06 12:56:51;;;;;;;5.82;1.90;;;13.70;91.60;;;;;;5087767;28;20464;-58
2022/11/06 12:59:25;;;;;;;3.05;1.60;;;13.60;91.70;;;;;;5084049;28;20626;-57
2022/11/06 13:02:19;;;;;;;5.00;1.70;;;13.60;92.00;;;;;;5082608;28;20396;-57
2022/11/06 13:04:58;;;;;;;4.35;2.08;;;13.60;91.70;;;;;;5082302;28;20031;-55
2022/11/06 13:07:35;;;;;;;5.22;2.20;;;13.60;91.80;;;;;;5086009;28;20024;-57
2022/11/06 13:10:20;;;;;;;5.32;1.80;;;13.60;91.90;;;;;;5084479;28;20021;-57
2022/11/06 13:12:51;;;;;;;7.63;2.38;;;13.50;91.70;;;;;;5082437;28;20500;-56
2022/11/06 13:15:29;;;;;;;7.43;1.80;;;13.50;91.70;;;;;;5085219;28;20035;-58
2022/11/06 13:18:09;;;;;;;3.10;1.55;;;13.50;91.90;;;;;;5085642;28;20406;-57
2022/11/06 13:20:46;;;;;;;5.68;1.70;;;13.50;92.00;;;;;;5078075;28;20028;-58
2022/11/06 13:23:29;;;;;;;4.10;1.52;;;13.50;92.00;;;;;;5084108;28;20052;-56
2022/11/06 13:26:11;;;;;;;4.78;2.20;;;13.60;91.90;;;;;;5085870;28;20036;-56
2022/11/06 13:28:45;;;;;;;;;;;13.60;92.00;;;;;;5083087;28;20028;-56